Current | Forecast
Updated: 4:30 PM CEST on September 22, 2017
Observed at Salamanca, Spain
Temperature 25°C
Humidity 28%
Dew Point 5°C
Wind NNW at 7 km/h
Pressure 1019 hPa (Steady)
Conditions Partly Cloudy
Visibility 10.0 kilometers
UV 5 out of 16
Clouds (FEW) : 1371 m
Yesterday's Maximum 25°C
Yesterday's Minimum 6°C approx.
Yesterday's Heating Degree Days 5 approx.
Sunrise8:09 AM CEST
Sunset8:18 PM CEST
Moon Rise10:14 AM CEST
Moon Set9:51 PM CEST
Moon PhaseMoon Phase
Waxing Crescent
Raw METARMETAR LESA 221430Z 34004KT 270V060 9999 FEW045 25/05 Q1019


Monday
. High: 62° F.
Tuesday
. High: 71° F.
Wednesday
. High: 60° F.
Thursday
. High: 64° F.
Friday
. High: 73° F.
Saturday
. High: 66° F.
Sunday
. High: 71° F.
Monday
. High: 77° F.

Units: English | Metric

Find the Weather for any City, State or Zipcode, or Country:

U.S. State List | Severe Weather | Tropical Storms | Ski Conditions
United States | Canada | Central America | South America | Asia | Europe | Australia | Africa | Islands

Weather Underground

© Copyright 2017
The Weather Company, LLC